createdAt,value
2017-09-15T00:01:26.299Z,1.50
2017-09-15T00:03:52.941Z,1.20
2017-09-15T00:06:19.627Z,1.27
2017-09-15T00:08:46.259Z,1.37
2017-09-15T00:11:12.920Z,1.30
2017-09-15T00:13:39.559Z,1.10
2017-09-15T00:16:06.225Z,1.27
2017-09-15T00:18:32.862Z,1.10
2017-09-15T00:20:59.533Z,1.20
2017-09-15T00:23:26.171Z,1.43
2017-09-15T00:25:52.830Z,1.13
2017-09-15T00:28:19.497Z,1.13
2017-09-15T00:30:46.169Z,1.10
2017-09-15T00:33:12.826Z,1.30
2017-09-15T00:35:39.480Z,1.00
2017-09-15T00:38:06.144Z,1.07
2017-09-15T00:40:32.813Z,1.30
2017-09-15T00:42:59.462Z,1.40
2017-09-15T00:45:26.131Z,1.47
2017-09-15T00:47:52.767Z,1.30
2017-09-15T00:50:19.431Z,1.57
2017-09-15T00:52:46.095Z,1.17
2017-09-15T00:55:12.759Z,1.03
2017-09-15T00:57:39.476Z,1.53
2017-09-15T01:00:06.148Z,1.70
2017-09-15T01:02:32.922Z,1.33
2017-09-15T01:04:59.581Z,1.40
2017-09-15T01:07:26.222Z,1.73
2017-09-15T01:09:52.851Z,1.30
2017-09-15T01:12:19.517Z,1.30
2017-09-15T01:14:46.147Z,1.33
2017-09-15T01:17:12.854Z,1.43
2017-09-15T01:19:39.500Z,1.27
2017-09-15T01:22:06.143Z,1.50
2017-09-15T01:24:32.803Z,1.50
2017-09-15T01:26:59.438Z,1.40
2017-09-15T01:29:26.103Z,1.50
2017-09-15T01:31:52.766Z,1.50
2017-09-15T01:34:19.396Z,2.93
2017-09-15T01:36:46.052Z,1.27
2017-09-15T01:39:12.694Z,1.90
2017-09-15T01:41:39.349Z,1.50
2017-09-15T01:44:06.010Z,1.80
2017-09-15T01:46:32.647Z,1.23
2017-09-15T01:48:59.306Z,1.33
2017-09-15T01:51:25.945Z,1.47
2017-09-15T01:53:52.651Z,1.30
2017-09-15T01:56:19.292Z,1.70
2017-09-15T01:58:45.945Z,1.50
2017-09-15T02:01:12.611Z,1.47
2017-09-15T02:03:39.262Z,1.73
2017-09-15T02:06:05.987Z,1.73
2017-09-15T02:08:32.616Z,1.50
2017-09-15T02:10:59.263Z,1.67
2017-09-15T02:13:25.940Z,2.07
2017-09-15T02:15:52.576Z,1.67
2017-09-15T02:18:19.232Z,1.10
2017-09-15T02:20:45.898Z,1.40
2017-09-15T02:23:12.535Z,1.40
2017-09-15T02:25:39.203Z,1.60
2017-09-15T02:28:05.828Z,1.53
2017-09-15T02:30:32.488Z,1.60
2017-09-15T02:32:59.155Z,1.67
2017-09-15T02:35:25.812Z,1.63
2017-09-15T02:37:52.470Z,1.30
2017-09-15T02:40:19.103Z,1.27
2017-09-15T02:42:45.792Z,1.50
2017-09-15T02:45:12.462Z,1.60
2017-09-15T02:47:39.126Z,1.70
2017-09-15T02:50:05.769Z,1.97
2017-09-15T02:52:32.440Z,2.07
2017-09-15T02:54:59.073Z,1.77
2017-09-15T02:57:25.824Z,2.17
2017-09-15T02:59:52.478Z,2.30
2017-09-15T03:02:19.126Z,2.13
2017-09-15T03:04:45.787Z,1.90
2017-09-15T03:07:12.446Z,1.90
2017-09-15T03:09:39.083Z,2.00
2017-09-15T03:12:05.801Z,2.20
2017-09-15T03:14:32.437Z,2.10
2017-09-15T03:16:59.080Z,1.70
2017-09-15T03:19:25.736Z,1.70
2017-09-15T03:21:52.372Z,1.50
2017-09-15T03:24:19.046Z,1.73
2017-09-15T03:26:45.684Z,1.90
2017-09-15T03:29:12.330Z,1.93
2017-09-15T03:31:38.957Z,1.50
2017-09-15T03:34:05.582Z,1.60
2017-09-15T03:36:32.338Z,2.00
2017-09-15T03:38:58.967Z,2.57
2017-09-15T03:41:25.638Z,2.10
2017-09-15T03:43:52.258Z,2.10
2017-09-15T03:46:18.888Z,1.80
2017-09-15T03:48:45.550Z,1.77
2017-09-15T03:51:12.174Z,1.50
2017-09-15T03:53:38.802Z,2.17
2017-09-15T03:56:05.474Z,1.80
2017-09-15T03:58:32.142Z,1.90
2017-09-15T04:00:58.825Z,1.87
2017-09-15T04:03:25.464Z,2.00
2017-09-15T04:05:52.105Z,1.87
2017-09-15T04:08:18.784Z,1.80
2017-09-15T04:10:45.431Z,2.23
2017-09-15T04:13:12.060Z,2.03
2017-09-15T04:15:38.743Z,1.77
2017-09-15T04:18:05.403Z,1.90
2017-09-15T04:20:32.084Z,2.37
2017-09-15T04:22:58.750Z,1.90
2017-09-15T04:25:25.510Z,1.93
2017-09-15T04:27:52.152Z,2.23
2017-09-15T04:30:18.852Z,2.40
2017-09-15T04:32:45.501Z,1.93
2017-09-15T04:35:12.165Z,2.30
2017-09-15T04:37:38.803Z,2.20
2017-09-15T04:40:05.466Z,1.87
2017-09-15T04:42:32.126Z,1.83
2017-09-15T04:44:58.763Z,1.93
2017-09-15T04:47:25.421Z,1.50
2017-09-15T04:49:52.062Z,1.90
2017-09-15T04:52:19.033Z,2.20
2017-09-15T04:54:45.762Z,2.27
2017-09-15T04:57:12.453Z,2.03
2017-09-15T04:59:39.089Z,1.80
2017-09-15T05:02:05.743Z,2.20
2017-09-15T05:04:32.411Z,2.20
2017-09-15T05:06:59.126Z,1.90
2017-09-15T05:09:25.828Z,2.00
2017-09-15T05:11:52.520Z,2.07
2017-09-15T05:14:19.156Z,2.17
2017-09-15T05:16:45.797Z,2.53
2017-09-15T05:19:12.476Z,2.20
2017-09-15T05:21:39.202Z,2.17
2017-09-15T05:24:05.892Z,2.40
2017-09-15T05:26:32.551Z,1.90
2017-09-15T05:28:59.232Z,2.47
2017-09-15T05:31:25.886Z,2.27
2017-09-15T05:33:52.596Z,2.57
2017-09-15T05:36:19.230Z,2.83
2017-09-15T05:38:45.972Z,2.90
2017-09-15T05:41:12.640Z,2.90
2017-09-15T05:43:39.340Z,2.60
2017-09-15T05:46:06.027Z,2.20
2017-09-15T05:48:32.690Z,2.67
2017-09-15T05:50:59.321Z,2.97
2017-09-15T05:53:26.108Z,3.37
2017-09-15T05:55:52.814Z,2.63
2017-09-15T05:58:19.588Z,2.70
2017-09-15T06:00:46.232Z,2.50
2017-09-15T06:03:12.904Z,2.73
2017-09-15T06:05:39.540Z,2.07
2017-09-15T06:08:06.176Z,2.17
2017-09-15T06:10:32.845Z,1.60
2017-09-15T06:12:59.485Z,1.70
2017-09-15T06:15:26.161Z,1.87
2017-09-15T06:17:52.846Z,2.30
2017-09-15T06:20:19.484Z,2.20
2017-09-15T06:22:46.148Z,1.73
2017-09-15T06:25:12.827Z,2.07
2017-09-15T06:27:39.487Z,1.90
2017-09-15T06:30:06.167Z,1.93
2017-09-15T06:32:32.808Z,2.70
2017-09-15T06:34:59.484Z,2.07
2017-09-15T06:37:26.111Z,1.10
2017-09-15T06:39:52.743Z,1.50
2017-09-15T06:42:19.405Z,2.00
2017-09-15T06:44:46.044Z,1.90
2017-09-15T06:47:12.725Z,2.03
2017-09-15T06:49:39.387Z,1.50
2017-09-15T06:52:06.107Z,2.07
2017-09-15T06:54:32.780Z,1.77
2017-09-15T06:56:59.429Z,1.40
2017-09-15T06:59:26.098Z,1.23
2017-09-15T07:01:52.727Z,1.23
2017-09-15T07:04:19.398Z,1.63
2017-09-15T07:06:46.063Z,1.40
2017-09-15T07:09:12.744Z,1.40
2017-09-15T07:11:39.383Z,1.67
2017-09-15T07:14:06.049Z,1.77
2017-09-15T07:16:32.682Z,1.40
2017-09-15T07:18:59.370Z,1.70
2017-09-15T07:21:26.014Z,1.10
2017-09-15T07:23:52.651Z,1.50
2017-09-15T07:26:19.325Z,1.60
2017-09-15T07:28:45.959Z,1.70
2017-09-15T07:31:12.617Z,1.13
2017-09-15T07:33:39.269Z,1.40
2017-09-15T07:36:06.027Z,1.70
2017-09-15T07:38:32.663Z,1.50
2017-09-15T07:40:59.297Z,1.20
2017-09-15T07:43:25.975Z,1.70
2017-09-15T07:45:52.619Z,1.33
2017-09-15T07:48:19.265Z,1.27
2017-09-15T07:50:45.932Z,1.50
2017-09-15T07:53:12.599Z,1.37
2017-09-15T07:55:39.260Z,4.70
2017-09-15T07:58:05.905Z,1.60
2017-09-15T08:00:32.596Z,1.00
2017-09-15T08:02:59.242Z,1.40
2017-09-15T08:05:25.988Z,1.67
2017-09-15T08:07:52.653Z,2.03
2017-09-15T08:10:19.286Z,1.50
2017-09-15T08:12:45.960Z,1.40
2017-09-15T08:15:12.601Z,1.70
2017-09-15T08:17:39.255Z,1.50
2017-09-15T08:20:06.020Z,1.63
2017-09-15T08:22:32.675Z,1.67
2017-09-15T08:24:59.362Z,1.50
2017-09-15T08:27:26.034Z,1.50
2017-09-15T08:29:52.657Z,1.47
2017-09-15T08:32:19.286Z,1.23
2017-09-15T08:34:45.931Z,1.30
2017-09-15T08:37:12.567Z,1.40
2017-09-15T08:39:39.244Z,1.17
2017-09-15T08:42:05.885Z,2.90
2017-09-15T08:44:32.520Z,1.90
2017-09-15T08:46:59.185Z,1.57
2017-09-15T08:49:25.854Z,1.50
2017-09-15T08:51:52.515Z,1.27
2017-09-15T08:54:19.188Z,1.63
2017-09-15T08:56:45.831Z,2.03
2017-09-15T08:59:12.500Z,1.13
2017-09-15T09:01:39.142Z,1.20
2017-09-15T09:04:05.809Z,1.73
2017-09-15T09:06:32.479Z,1.40
2017-09-15T09:08:59.119Z,1.33
2017-09-15T09:11:25.793Z,1.00
2017-09-15T09:13:52.467Z,1.60
2017-09-15T09:16:19.107Z,1.10
2017-09-15T09:18:45.785Z,1.40
2017-09-15T09:21:12.426Z,1.67
2017-09-15T09:23:39.104Z,1.07
2017-09-15T09:26:05.745Z,1.70
2017-09-15T09:28:32.380Z,1.50
2017-09-15T09:30:59.062Z,1.50
2017-09-15T09:33:25.701Z,1.30
2017-09-15T09:35:52.336Z,1.10
2017-09-15T09:38:19.001Z,1.30
2017-09-15T09:40:45.635Z,1.30
2017-09-15T09:43:12.326Z,1.13
2017-09-15T09:45:38.970Z,1.63
2017-09-15T09:48:05.648Z,1.20
2017-09-15T09:50:32.313Z,1.30
2017-09-15T09:52:58.991Z,1.00
2017-09-15T09:55:25.656Z,1.20
2017-09-15T09:57:52.302Z,1.23
2017-09-15T10:00:18.981Z,1.20
2017-09-15T10:02:45.659Z,1.40
2017-09-15T10:05:12.314Z,1.33
2017-09-15T10:07:38.992Z,1.43
2017-09-15T10:10:05.640Z,1.20
2017-09-15T10:12:32.283Z,1.13
2017-09-15T10:14:58.973Z,1.07
2017-09-15T10:17:25.637Z,1.30
2017-09-15T10:19:52.276Z,1.27
2017-09-15T10:22:18.943Z,1.13
2017-09-15T10:24:45.579Z,1.20
2017-09-15T10:27:12.259Z,0.80
2017-09-15T10:29:38.935Z,1.30
2017-09-15T10:32:05.570Z,1.27
2017-09-15T10:34:32.235Z,1.10
2017-09-15T10:36:58.870Z,1.20
2017-09-15T10:39:25.540Z,1.00
2017-09-15T10:41:52.210Z,1.40
2017-09-15T10:44:18.847Z,1.03
2017-09-15T10:46:45.486Z,1.10
2017-09-15T10:49:12.166Z,1.13
2017-09-15T10:51:38.812Z,1.00
2017-09-15T10:54:05.459Z,1.03
2017-09-15T10:56:32.134Z,1.17
2017-09-15T10:59:19.608Z,1.10
2017-09-15T11:01:46.288Z,1.00
2017-09-15T11:04:12.963Z,1.00
2017-09-15T11:06:39.636Z,0.90
2017-09-15T11:09:06.328Z,1.10
2017-09-15T11:11:33.044Z,1.00
2017-09-15T11:13:59.704Z,1.23
2017-09-15T11:16:26.348Z,1.13
2017-09-15T11:18:53.056Z,1.10
2017-09-15T11:21:19.692Z,1.30
2017-09-15T11:23:46.332Z,1.03
2017-09-15T11:26:13.002Z,1.00
2017-09-15T11:28:39.669Z,2.77
2017-09-15T11:31:06.353Z,1.93
2017-09-15T11:33:33.002Z,1.33
2017-09-15T11:35:59.707Z,1.30
2017-09-15T11:38:26.361Z,1.37
2017-09-15T11:40:53.001Z,1.20
2017-09-15T11:43:19.673Z,1.33
2017-09-15T11:45:46.332Z,1.90
2017-09-15T11:48:12.988Z,1.50
2017-09-15T11:50:39.676Z,1.37
2017-09-15T11:53:06.344Z,1.40
2017-09-15T11:55:33.016Z,1.30
2017-09-15T11:57:59.697Z,1.43
2017-09-15T12:00:26.353Z,1.60
2017-09-15T12:02:52.996Z,1.30
2017-09-15T12:05:19.672Z,1.47
2017-09-15T12:07:46.334Z,1.43
2017-09-15T12:10:12.977Z,1.80
2017-09-15T12:12:39.765Z,1.67
2017-09-15T12:15:06.408Z,1.80
2017-09-15T12:17:33.062Z,1.20
2017-09-15T12:19:59.728Z,1.30
2017-09-15T12:22:26.420Z,0.93
2017-09-15T12:24:53.101Z,1.30
2017-09-15T12:27:19.731Z,1.50
2017-09-15T12:29:46.408Z,1.53
2017-09-15T12:32:13.052Z,1.33
2017-09-15T12:34:39.711Z,1.63
2017-09-15T12:37:06.405Z,1.57
2017-09-15T12:39:33.115Z,1.33
2017-09-15T12:41:59.808Z,1.40
2017-09-15T12:44:26.484Z,1.20
2017-09-15T12:46:53.135Z,1.43
2017-09-15T12:49:19.797Z,1.60
2017-09-15T12:51:46.835Z,1.53
2017-09-15T12:54:13.478Z,1.87
2017-09-15T12:56:40.120Z,2.40
2017-09-15T12:59:06.791Z,2.00
2017-09-15T13:01:33.437Z,1.70
2017-09-15T13:04:00.089Z,1.80
2017-09-15T13:06:26.782Z,1.40
2017-09-15T13:08:53.426Z,2.53
2017-09-15T13:11:20.066Z,1.17
2017-09-15T13:13:46.720Z,1.60
2017-09-15T13:16:13.362Z,1.60
2017-09-15T13:18:40.051Z,1.37
2017-09-15T13:21:06.713Z,1.67
2017-09-15T13:23:33.368Z,1.10
2017-09-15T13:26:00.036Z,1.53
2017-09-15T13:28:26.771Z,1.10
2017-09-15T13:30:53.445Z,1.27
2017-09-15T13:33:20.092Z,1.20
2017-09-15T13:35:46.805Z,0.80
2017-09-15T13:38:13.460Z,0.80
2017-09-15T13:40:40.156Z,1.10
2017-09-15T13:43:06.838Z,1.00
2017-09-15T13:45:33.487Z,0.77
2017-09-15T13:48:00.181Z,1.20
2017-09-15T13:50:26.888Z,0.73
2017-09-15T13:52:53.576Z,1.27
2017-09-15T13:55:20.244Z,1.00
2017-09-15T13:57:46.934Z,1.00
2017-09-15T14:00:13.580Z,0.80
2017-09-15T14:02:40.252Z,0.80
2017-09-15T14:05:06.939Z,0.80
2017-09-15T14:07:33.622Z,0.93
2017-09-15T14:10:00.278Z,1.00
2017-09-15T14:12:26.995Z,1.00
2017-09-15T14:14:53.637Z,0.90
2017-09-15T14:17:20.323Z,1.27
2017-09-15T14:19:46.962Z,1.00
2017-09-15T14:22:13.869Z,1.00
2017-09-15T14:24:40.564Z,1.20
2017-09-15T14:27:07.209Z,1.20
2017-09-15T14:29:33.849Z,1.40
2017-09-15T14:32:00.543Z,0.80
2017-09-15T14:34:27.196Z,0.93
2017-09-15T14:36:53.873Z,1.00
2017-09-15T14:39:20.557Z,0.80
2017-09-15T14:41:47.237Z,0.87
2017-09-15T14:44:13.881Z,1.33
2017-09-15T14:46:40.594Z,1.10
2017-09-15T14:49:07.299Z,1.13
2017-09-15T14:51:33.947Z,1.07
2017-09-15T14:54:00.610Z,0.90
2017-09-15T14:56:27.312Z,0.90
2017-09-15T14:58:53.989Z,0.90
2017-09-15T15:01:20.870Z,1.00
2017-09-15T15:03:47.549Z,0.80
2017-09-15T15:06:14.229Z,0.90
2017-09-15T15:08:40.937Z,0.90
2017-09-15T15:11:08.707Z,1.00
2017-09-15T15:13:35.356Z,1.13
2017-09-15T15:16:02.044Z,0.80
2017-09-15T15:18:28.679Z,0.70
2017-09-15T15:20:56.245Z,0.90
2017-09-15T15:23:22.927Z,3.03
2017-09-15T15:25:49.567Z,1.07
2017-09-15T15:28:16.220Z,0.80
2017-09-15T15:30:42.891Z,1.20
2017-09-15T15:33:09.534Z,1.20
2017-09-15T15:35:36.192Z,0.93
2017-09-15T15:38:02.855Z,1.20
2017-09-15T15:40:29.528Z,1.07
2017-09-15T15:42:56.201Z,0.80
2017-09-15T15:45:22.887Z,1.10
2017-09-15T15:47:49.527Z,1.20
2017-09-15T15:50:16.174Z,0.80
2017-09-15T15:52:42.884Z,1.17
2017-09-15T15:55:09.576Z,0.90
2017-09-15T15:57:36.221Z,1.30
2017-09-15T16:00:02.906Z,1.03
2017-09-15T16:02:29.587Z,1.23
2017-09-15T16:04:56.240Z,0.80
2017-09-15T16:07:22.924Z,0.93
2017-09-15T16:09:49.614Z,1.03
2017-09-15T16:12:16.251Z,0.80
2017-09-15T16:14:42.896Z,0.73
2017-09-15T16:17:09.575Z,1.07
2017-09-15T16:19:36.244Z,1.30
2017-09-15T16:22:02.878Z,1.20
2017-09-15T16:24:29.556Z,1.40
2017-09-15T16:26:56.207Z,1.33
2017-09-15T16:29:23.535Z,1.37
2017-09-15T16:31:50.205Z,1.10
2017-09-15T16:34:16.852Z,0.90
2017-09-15T16:36:43.532Z,0.97
2017-09-15T16:39:15.993Z,1.20
2017-09-15T16:41:55.503Z,1.20
2017-09-15T16:44:27.785Z,1.60
2017-09-15T16:47:00.234Z,1.70
2017-09-15T16:49:30.462Z,1.90
2017-09-15T16:51:57.219Z,1.73
2017-09-15T16:54:23.891Z,2.13
2017-09-15T16:56:50.531Z,2.20
2017-09-15T16:59:17.170Z,2.10
2017-09-15T17:01:43.845Z,2.53
2017-09-15T17:04:10.508Z,1.80
2017-09-15T17:06:37.204Z,1.73
2017-09-15T17:09:03.888Z,2.50
2017-09-15T17:11:30.550Z,1.80
2017-09-15T17:13:57.354Z,2.20
2017-09-15T17:16:23.996Z,1.87
2017-09-15T17:18:50.680Z,1.87
2017-09-15T17:21:17.369Z,2.50
2017-09-15T17:23:44.060Z,1.47
2017-09-15T17:26:10.712Z,1.03
2017-09-15T17:28:37.386Z,1.63
2017-09-15T17:31:04.069Z,1.50
2017-09-15T17:33:30.713Z,1.47
2017-09-15T17:35:57.401Z,1.90
2017-09-15T17:38:24.088Z,1.83
2017-09-15T17:40:50.744Z,1.90
2017-09-15T17:43:17.396Z,1.73
2017-09-15T17:45:44.088Z,1.33
2017-09-15T17:48:10.722Z,2.17
2017-09-15T17:50:37.407Z,2.20
2017-09-15T17:53:04.045Z,1.70
2017-09-15T17:55:30.724Z,1.37
2017-09-15T17:57:57.360Z,1.30
2017-09-15T18:00:24.001Z,0.83
2017-09-15T18:02:50.688Z,1.10
2017-09-15T18:05:17.339Z,1.13
2017-09-15T18:07:43.992Z,1.33
2017-09-15T18:10:10.679Z,1.70
2017-09-15T18:12:37.330Z,1.37
2017-09-15T18:15:03.992Z,1.40
2017-09-15T18:17:30.758Z,1.60
2017-09-15T18:19:57.447Z,1.53
2017-09-15T18:22:24.122Z,1.40
2017-09-15T18:24:50.772Z,1.23
2017-09-15T18:27:17.452Z,1.50
2017-09-15T18:29:44.350Z,1.50
2017-09-15T18:32:11.110Z,1.10
2017-09-15T18:34:37.789Z,1.10
2017-09-15T18:37:04.505Z,1.50
2017-09-15T18:39:31.175Z,1.13
2017-09-15T18:41:57.845Z,1.60
2017-09-15T18:44:24.492Z,1.20
2017-09-15T18:46:51.134Z,1.27
2017-09-15T18:49:17.824Z,1.30
2017-09-15T18:51:44.503Z,1.40
2017-09-15T18:54:11.204Z,1.80
2017-09-15T18:56:37.878Z,2.53
2017-09-15T18:59:04.567Z,2.83
2017-09-15T19:01:31.216Z,3.30
2017-09-15T19:03:57.920Z,3.53
2017-09-15T19:06:24.637Z,2.63
2017-09-15T19:08:51.374Z,3.10
2017-09-15T19:11:18.056Z,3.00
2017-09-15T19:13:44.723Z,3.40
2017-09-15T19:16:11.392Z,2.93
2017-09-15T19:18:38.084Z,3.60
2017-09-15T19:21:04.743Z,2.90
2017-09-15T19:23:31.397Z,3.47
2017-09-15T19:25:58.100Z,4.10
2017-09-15T19:28:24.735Z,3.40
2017-09-15T19:30:51.371Z,3.63
2017-09-15T19:33:18.049Z,3.33
2017-09-15T19:35:44.707Z,3.83
2017-09-15T19:38:11.444Z,4.20
2017-09-15T19:40:38.140Z,3.93
2017-09-15T19:43:04.810Z,3.70
2017-09-15T19:45:34.328Z,4.73
2017-09-15T19:48:01.006Z,4.40
2017-09-15T19:50:27.717Z,3.47
2017-09-15T19:52:54.387Z,4.30
2017-09-15T19:55:21.109Z,4.10
2017-09-15T19:57:47.817Z,4.37
2017-09-15T20:00:14.468Z,3.73
2017-09-15T20:02:41.148Z,3.60
2017-09-15T20:05:07.837Z,3.50
2017-09-15T20:07:34.520Z,3.90
2017-09-15T20:10:01.183Z,3.40
2017-09-15T20:12:27.860Z,3.63
2017-09-15T20:14:54.543Z,3.90
2017-09-15T20:17:21.226Z,3.40
2017-09-15T20:19:47.915Z,3.40
2017-09-15T20:22:14.694Z,3.13
2017-09-15T20:24:41.560Z,3.23
2017-09-15T20:27:08.404Z,3.20
2017-09-15T20:29:35.075Z,3.47
2017-09-15T20:32:01.749Z,3.03
2017-09-15T20:34:28.432Z,3.30
2017-09-15T20:36:55.088Z,4.40
2017-09-15T20:39:21.739Z,4.10
2017-09-15T20:41:48.434Z,3.63
2017-09-15T20:44:15.089Z,3.90
2017-09-15T20:46:41.757Z,4.23
2017-09-15T20:49:08.425Z,3.97
2017-09-15T20:51:35.241Z,4.93
2017-09-15T20:54:05.367Z,4.80
2017-09-15T20:56:32.019Z,4.60
2017-09-15T20:58:58.745Z,4.00
2017-09-15T21:01:25.400Z,4.80
2017-09-15T21:03:52.042Z,5.30
2017-09-15T21:06:18.707Z,4.37
2017-09-15T21:08:45.368Z,4.50
2017-09-15T21:11:12.052Z,3.60
2017-09-15T21:13:38.724Z,3.73
2017-09-15T21:16:05.462Z,4.10
2017-09-15T21:18:32.124Z,4.60
2017-09-15T21:20:58.772Z,3.53
2017-09-15T21:23:25.489Z,3.90
2017-09-15T21:25:52.165Z,4.30
2017-09-15T21:28:18.808Z,4.40
2017-09-15T21:30:45.520Z,4.40
2017-09-15T21:33:12.168Z,4.67
2017-09-15T21:35:38.841Z,4.00
2017-09-15T21:38:05.484Z,4.73
2017-09-15T21:40:32.171Z,3.93
2017-09-15T21:42:58.815Z,4.33
2017-09-15T21:45:25.469Z,5.60
2017-09-15T21:47:52.140Z,5.60
2017-09-15T21:50:18.878Z,5.00
2017-09-15T21:52:45.561Z,4.20
2017-09-15T21:55:12.204Z,5.23
2017-09-15T21:57:39.895Z,4.50
2017-09-15T22:00:06.580Z,4.90
2017-09-15T22:02:33.233Z,5.23
2017-09-15T22:04:59.903Z,4.80
2017-09-15T22:07:26.544Z,4.30
2017-09-15T22:09:53.216Z,4.77
2017-09-15T22:12:19.891Z,5.13
2017-09-15T22:14:46.547Z,4.70
2017-09-15T22:17:14.831Z,5.30
2017-09-15T22:19:41.471Z,5.20
2017-09-15T22:22:08.123Z,4.77
2017-09-15T22:24:34.806Z,3.90
2017-09-15T22:27:01.445Z,4.03
2017-09-15T22:29:28.128Z,3.90
2017-09-15T22:31:54.772Z,4.83
2017-09-15T22:34:21.456Z,4.40
2017-09-15T22:36:48.127Z,4.47
2017-09-15T22:39:14.772Z,4.60
2017-09-15T22:41:41.453Z,4.37
2017-09-15T22:44:08.108Z,4.43
2017-09-15T22:46:34.795Z,4.50
2017-09-15T22:49:01.569Z,4.80
2017-09-15T22:51:28.208Z,5.97
2017-09-15T22:53:54.848Z,5.20
2017-09-15T22:56:21.524Z,5.00
2017-09-15T22:58:48.171Z,5.37
2017-09-15T23:01:14.855Z,5.70
2017-09-15T23:03:41.498Z,6.40
2017-09-15T23:06:08.176Z,6.77
2017-09-15T23:08:34.861Z,6.90
2017-09-15T23:11:01.619Z,7.50
2017-09-15T23:13:28.284Z,7.40
2017-09-15T23:15:54.965Z,8.00
2017-09-15T23:18:21.606Z,7.27
2017-09-15T23:20:48.374Z,6.73
2017-09-15T23:23:15.018Z,6.47
2017-09-15T23:25:41.690Z,6.80
2017-09-15T23:28:08.369Z,6.13
2017-09-15T23:30:35.017Z,6.57
2017-09-15T23:33:01.664Z,6.37
2017-09-15T23:35:28.340Z,7.17
2017-09-15T23:37:55.038Z,5.83
2017-09-15T23:40:21.695Z,6.20
2017-09-15T23:42:48.339Z,5.90
2017-09-15T23:45:14.994Z,5.63
2017-09-15T23:47:41.662Z,5.60
2017-09-15T23:50:08.340Z,5.50
2017-09-15T23:52:34.999Z,5.60
2017-09-15T23:55:01.681Z,6.53
2017-09-15T23:57:28.454Z,5.40
2017-09-15T23:59:55.155Z,4.90
